sensor_id;sensor_type;location;lat;lon;timestamp;P1;durP1;ratioP1;P2;durP2;ratioP2
2644;SDS011;15377;48.540;9.268;2022-11-20T00:01:38;7.80;;;3.87;;
2644;SDS011;15377;48.540;9.268;2022-11-20T00:04:03;7.47;;;4.30;;
2644;SDS011;15377;48.540;9.268;2022-11-20T00:06:29;7.00;;;3.57;;
2644;SDS011;15377;48.540;9.268;2022-11-20T00:08:55;7.27;;;3.37;;
2644;SDS011;15377;48.540;9.268;2022-11-20T00:11:22;7.65;;;3.67;;
2644;SDS011;15377;48.540;9.268;2022-11-20T00:13:50;6.80;;;3.53;;
2644;SDS011;15377;48.540;9.268;2022-11-20T00:16:18;6.40;;;3.38;;
2644;SDS011;15377;48.540;9.268;2022-11-20T00:18:45;6.95;;;3.40;;
2644;SDS011;15377;48.540;9.268;2022-11-20T00:21:13;6.70;;;3.47;;
2644;SDS011;15377;48.540;9.268;2022-11-20T00:23:40;6.50;;;3.65;;
2644;SDS011;15377;48.540;9.268;2022-11-20T00:26:08;10.02;;;4.57;;
2644;SDS011;15377;48.540;9.268;2022-11-20T00:28:35;6.90;;;3.70;;
2644;SDS011;15377;48.540;9.268;2022-11-20T00:31:01;7.13;;;4.00;;
2644;SDS011;15377;48.540;9.268;2022-11-20T00:33:30;9.32;;;3.97;;
2644;SDS011;15377;48.540;9.268;2022-11-20T00:36:06;7.03;;;3.87;;
2644;SDS011;15377;48.540;9.268;2022-11-20T00:38:33;7.97;;;4.20;;
2644;SDS011;15377;48.540;9.268;2022-11-20T00:41:00;7.80;;;4.10;;
2644;SDS011;15377;48.540;9.268;2022-11-20T00:43:26;7.95;;;4.18;;
2644;SDS011;15377;48.540;9.268;2022-11-20T00:46:03;7.03;;;3.43;;
2644;SDS011;15377;48.540;9.268;2022-11-20T00:48:33;8.13;;;4.20;;
2644;SDS011;15377;48.540;9.268;2022-11-20T00:50:59;8.87;;;4.23;;
2644;SDS011;15377;48.540;9.268;2022-11-20T00:53:24;11.90;;;4.93;;
2644;SDS011;15377;48.540;9.268;2022-11-20T00:56:00;9.27;;;5.37;;
2644;SDS011;15377;48.540;9.268;2022-11-20T00:58:31;8.05;;;4.43;;
2644;SDS011;15377;48.540;9.268;2022-11-20T01:01:01;8.35;;;4.82;;
2644;SDS011;15377;48.540;9.268;2022-11-20T01:03:30;10.50;;;5.15;;
2644;SDS011;15377;48.540;9.268;2022-11-20T01:05:59;8.77;;;4.90;;
2644;SDS011;15377;48.540;9.268;2022-11-20T01:08:29;9.88;;;4.85;;
2644;SDS011;15377;48.540;9.268;2022-11-20T01:11:06;9.00;;;4.90;;
2644;SDS011;15377;48.540;9.268;2022-11-20T01:13:34;9.00;;;5.18;;
2644;SDS011;15377;48.540;9.268;2022-11-20T01:16:07;9.73;;;5.15;;
2644;SDS011;15377;48.540;9.268;2022-11-20T01:18:33;9.35;;;4.88;;
2644;SDS011;15377;48.540;9.268;2022-11-20T01:21:00;9.38;;;4.90;;
2644;SDS011;15377;48.540;9.268;2022-11-20T01:23:33;9.55;;;4.65;;
2644;SDS011;15377;48.540;9.268;2022-11-20T01:26:00;9.23;;;4.93;;
2644;SDS011;15377;48.540;9.268;2022-11-20T01:28:28;11.48;;;5.70;;
2644;SDS011;15377;48.540;9.268;2022-11-20T01:30:53;10.00;;;5.73;;
2644;SDS011;15377;48.540;9.268;2022-11-20T01:33:18;11.07;;;6.03;;
2644;SDS011;15377;48.540;9.268;2022-11-20T01:35:44;9.70;;;5.10;;
2644;SDS011;15377;48.540;9.268;2022-11-20T01:38:09;8.17;;;5.30;;
2644;SDS011;15377;48.540;9.268;2022-11-20T01:40:34;14.03;;;7.00;;
2644;SDS011;15377;48.540;9.268;2022-11-20T01:43:06;13.07;;;7.70;;
2644;SDS011;15377;48.540;9.268;2022-11-20T01:48:33;10.85;;;5.57;;
2644;SDS011;15377;48.540;9.268;2022-11-20T01:51:07;11.02;;;5.88;;
2644;SDS011;15377;48.540;9.268;2022-11-20T01:53:39;9.45;;;6.10;;
2644;SDS011;15377;48.540;9.268;2022-11-20T01:56:06;9.63;;;5.63;;
2644;SDS011;15377;48.540;9.268;2022-11-20T01:58:35;10.30;;;5.95;;
2644;SDS011;15377;48.540;9.268;2022-11-20T02:01:06;13.52;;;6.75;;
2644;SDS011;15377;48.540;9.268;2022-11-20T02:03:31;11.80;;;6.10;;
2644;SDS011;15377;48.540;9.268;2022-11-20T02:06:00;10.10;;;5.13;;
2644;SDS011;15377;48.540;9.268;2022-11-20T02:08:30;11.32;;;6.82;;
2644;SDS011;15377;48.540;9.268;2022-11-20T02:10:57;9.77;;;5.47;;
2644;SDS011;15377;48.540;9.268;2022-11-20T02:13:22;10.20;;;5.37;;
2644;SDS011;15377;48.540;9.268;2022-11-20T02:16:08;9.45;;;5.80;;
2644;SDS011;15377;48.540;9.268;2022-11-20T02:18:36;11.07;;;6.53;;
2644;SDS011;15377;48.540;9.268;2022-11-20T02:21:06;11.00;;;6.00;;
2644;SDS011;15377;48.540;9.268;2022-11-20T02:24:19;9.70;;;5.75;;
2644;SDS011;15377;48.540;9.268;2022-11-20T02:26:50;10.18;;;7.10;;
2644;SDS011;15377;48.540;9.268;2022-11-20T02:32:05;12.38;;;7.60;;
2644;SDS011;15377;48.540;9.268;2022-11-20T02:34:30;15.70;;;8.17;;
2644;SDS011;15377;48.540;9.268;2022-11-20T02:36:56;11.02;;;6.43;;
2644;SDS011;15377;48.540;9.268;2022-11-20T02:39:24;11.75;;;7.28;;
2644;SDS011;15377;48.540;9.268;2022-11-20T02:41:52;13.73;;;7.63;;
2644;SDS011;15377;48.540;9.268;2022-11-20T02:44:19;11.65;;;6.45;;
2644;SDS011;15377;48.540;9.268;2022-11-20T02:46:45;10.18;;;6.85;;
2644;SDS011;15377;48.540;9.268;2022-11-20T02:49:10;12.27;;;7.10;;
2644;SDS011;15377;48.540;9.268;2022-11-20T02:51:35;11.27;;;7.00;;
2644;SDS011;15377;48.540;9.268;2022-11-20T02:54:01;9.97;;;6.33;;
2644;SDS011;15377;48.540;9.268;2022-11-20T02:56:26;11.33;;;6.47;;
2644;SDS011;15377;48.540;9.268;2022-11-20T02:58:52;12.70;;;6.50;;
2644;SDS011;15377;48.540;9.268;2022-11-20T03:01:18;11.20;;;5.80;;
2644;SDS011;15377;48.540;9.268;2022-11-20T03:03:43;9.10;;;5.40;;
2644;SDS011;15377;48.540;9.268;2022-11-20T03:06:08;12.03;;;5.77;;
2644;SDS011;15377;48.540;9.268;2022-11-20T03:08:34;9.90;;;5.40;;
2644;SDS011;15377;48.540;9.268;2022-11-20T03:11:03;7.30;;;3.90;;
2644;SDS011;15377;48.540;9.268;2022-11-20T03:13:31;7.80;;;4.10;;
2644;SDS011;15377;48.540;9.268;2022-11-20T03:15:56;8.97;;;4.20;;
2644;SDS011;15377;48.540;9.268;2022-11-20T03:18:22;7.50;;;3.70;;
2644;SDS011;15377;48.540;9.268;2022-11-20T03:20:47;8.13;;;3.60;;
2644;SDS011;15377;48.540;9.268;2022-11-20T03:23:12;7.03;;;3.60;;
2644;SDS011;15377;48.540;9.268;2022-11-20T03:25:38;6.97;;;3.60;;
2644;SDS011;15377;48.540;9.268;2022-11-20T03:28:03;8.00;;;4.17;;
2644;SDS011;15377;48.540;9.268;2022-11-20T03:30:29;8.33;;;3.53;;
2644;SDS011;15377;48.540;9.268;2022-11-20T03:32:54;8.13;;;4.20;;
2644;SDS011;15377;48.540;9.268;2022-11-20T03:35:20;7.93;;;4.27;;
2644;SDS011;15377;48.540;9.268;2022-11-20T03:37:45;6.90;;;3.63;;
2644;SDS011;15377;48.540;9.268;2022-11-20T03:40:11;7.27;;;3.30;;
2644;SDS011;15377;48.540;9.268;2022-11-20T03:42:37;8.40;;;3.73;;
2644;SDS011;15377;48.540;9.268;2022-11-20T03:45:14;6.22;;;3.42;;
2644;SDS011;15377;48.540;9.268;2022-11-20T03:47:42;7.15;;;3.80;;
2644;SDS011;15377;48.540;9.268;2022-11-20T03:50:08;6.72;;;3.30;;
2644;SDS011;15377;48.540;9.268;2022-11-20T03:52:34;7.63;;;3.40;;
2644;SDS011;15377;48.540;9.268;2022-11-20T03:55:00;6.20;;;3.27;;
2644;SDS011;15377;48.540;9.268;2022-11-20T03:57:25;7.23;;;3.27;;
2644;SDS011;15377;48.540;9.268;2022-11-20T03:59:50;6.63;;;2.43;;
2644;SDS011;15377;48.540;9.268;2022-11-20T04:02:15;6.93;;;2.90;;
2644;SDS011;15377;48.540;9.268;2022-11-20T04:04:41;7.30;;;3.07;;
2644;SDS011;15377;48.540;9.268;2022-11-20T04:07:06;6.70;;;3.23;;
2644;SDS011;15377;48.540;9.268;2022-11-20T04:09:31;6.67;;;3.20;;
2644;SDS011;15377;48.540;9.268;2022-11-20T04:11:57;6.90;;;2.80;;
2644;SDS011;15377;48.540;9.268;2022-11-20T04:14:22;6.57;;;3.30;;
2644;SDS011;15377;48.540;9.268;2022-11-20T04:16:47;6.63;;;3.00;;
2644;SDS011;15377;48.540;9.268;2022-11-20T04:19:15;6.60;;;3.00;;
2644;SDS011;15377;48.540;9.268;2022-11-20T04:21:41;5.25;;;2.40;;
2644;SDS011;15377;48.540;9.268;2022-11-20T04:24:08;7.05;;;3.00;;
2644;SDS011;15377;48.540;9.268;2022-11-20T04:26:33;6.20;;;2.90;;
2644;SDS011;15377;48.540;9.268;2022-11-20T04:28:59;6.43;;;3.03;;
2644;SDS011;15377;48.540;9.268;2022-11-20T04:31:31;6.20;;;2.93;;
2644;SDS011;15377;48.540;9.268;2022-11-20T04:34:01;5.15;;;2.33;;
2644;SDS011;15377;48.540;9.268;2022-11-20T04:36:29;7.07;;;3.22;;
2644;SDS011;15377;48.540;9.268;2022-11-20T04:38:59;9.02;;;3.00;;
2644;SDS011;15377;48.540;9.268;2022-11-20T04:41:28;6.07;;;2.78;;
2644;SDS011;15377;48.540;9.268;2022-11-20T04:43:55;5.70;;;2.35;;
2644;SDS011;15377;48.540;9.268;2022-11-20T04:46:28;5.88;;;3.00;;
2644;SDS011;15377;48.540;9.268;2022-11-20T04:48:54;7.05;;;3.05;;
2644;SDS011;15377;48.540;9.268;2022-11-20T04:51:20;9.27;;;3.03;;
2644;SDS011;15377;48.540;9.268;2022-11-20T04:53:45;6.47;;;2.80;;
2644;SDS011;15377;48.540;9.268;2022-11-20T04:56:11;6.77;;;2.70;;
2644;SDS011;15377;48.540;9.268;2022-11-20T04:58:37;6.00;;;2.50;;
2644;SDS011;15377;48.540;9.268;2022-11-20T05:01:03;5.73;;;2.80;;
2644;SDS011;15377;48.540;9.268;2022-11-20T05:03:31;6.25;;;2.45;;
2644;SDS011;15377;48.540;9.268;2022-11-20T05:05:57;5.80;;;2.60;;
2644;SDS011;15377;48.540;9.268;2022-11-20T05:08:25;6.53;;;2.80;;
2644;SDS011;15377;48.540;9.268;2022-11-20T05:10:50;5.30;;;2.50;;
2644;SDS011;15377;48.540;9.268;2022-11-20T05:13:16;5.37;;;2.60;;
2644;SDS011;15377;48.540;9.268;2022-11-20T05:15:41;6.50;;;2.37;;
2644;SDS011;15377;48.540;9.268;2022-11-20T05:18:06;6.03;;;2.43;;
2644;SDS011;15377;48.540;9.268;2022-11-20T05:20:32;6.17;;;2.90;;
2644;SDS011;15377;48.540;9.268;2022-11-20T05:22:57;5.77;;;2.60;;
2644;SDS011;15377;48.540;9.268;2022-11-20T05:25:23;6.23;;;2.40;;
2644;SDS011;15377;48.540;9.268;2022-11-20T05:27:48;5.17;;;1.87;;
2644;SDS011;15377;48.540;9.268;2022-11-20T05:30:14;6.40;;;2.50;;
2644;SDS011;15377;48.540;9.268;2022-11-20T05:32:39;5.80;;;2.70;;
2644;SDS011;15377;48.540;9.268;2022-11-20T05:35:05;5.73;;;2.77;;
2644;SDS011;15377;48.540;9.268;2022-11-20T05:37:30;6.43;;;2.50;;
2644;SDS011;15377;48.540;9.268;2022-11-20T05:39:56;5.97;;;2.23;;
2644;SDS011;15377;48.540;9.268;2022-11-20T05:42:21;6.00;;;2.60;;
2644;SDS011;15377;48.540;9.268;2022-11-20T05:44:58;7.20;;;2.83;;
2644;SDS011;15377;48.540;9.268;2022-11-20T05:47:25;5.30;;;2.35;;
2644;SDS011;15377;48.540;9.268;2022-11-20T05:49:51;6.10;;;2.80;;
2644;SDS011;15377;48.540;9.268;2022-11-20T05:52:17;6.20;;;3.60;;
2644;SDS011;15377;48.540;9.268;2022-11-20T05:54:42;5.50;;;2.67;;
2644;SDS011;15377;48.540;9.268;2022-11-20T05:57:08;6.00;;;2.30;;
2644;SDS011;15377;48.540;9.268;2022-11-20T05:59:33;5.67;;;2.57;;
2644;SDS011;15377;48.540;9.268;2022-11-20T06:01:58;5.03;;;2.37;;
2644;SDS011;15377;48.540;9.268;2022-11-20T06:04:24;5.57;;;2.70;;
2644;SDS011;15377;48.540;9.268;2022-11-20T06:06:49;7.67;;;2.60;;
2644;SDS011;15377;48.540;9.268;2022-11-20T06:09:14;6.40;;;2.50;;
2644;SDS011;15377;48.540;9.268;2022-11-20T06:11:40;5.23;;;2.10;;
2644;SDS011;15377;48.540;9.268;2022-11-20T06:14:05;4.97;;;1.97;;
2644;SDS011;15377;48.540;9.268;2022-11-20T06:16:31;6.20;;;2.70;;
2644;SDS011;15377;48.540;9.268;2022-11-20T06:18:56;8.03;;;2.80;;
2644;SDS011;15377;48.540;9.268;2022-11-20T06:21:21;7.07;;;2.63;;
2644;SDS011;15377;48.540;9.268;2022-11-20T06:23:48;5.90;;;2.77;;
2644;SDS011;15377;48.540;9.268;2022-11-20T06:26:32;5.88;;;2.38;;
2644;SDS011;15377;48.540;9.268;2022-11-20T06:28:57;6.20;;;2.72;;
2644;SDS011;15377;48.540;9.268;2022-11-20T06:31:23;5.60;;;2.43;;
2644;SDS011;15377;48.540;9.268;2022-11-20T06:33:49;10.13;;;2.75;;
2644;SDS011;15377;48.540;9.268;2022-11-20T06:36:16;6.43;;;2.60;;
2644;SDS011;15377;48.540;9.268;2022-11-20T06:38:44;5.43;;;2.35;;
2644;SDS011;15377;48.540;9.268;2022-11-20T06:41:13;6.93;;;2.80;;
2644;SDS011;15377;48.540;9.268;2022-11-20T06:43:40;6.00;;;2.78;;
2644;SDS011;15377;48.540;9.268;2022-11-20T06:46:06;7.60;;;2.70;;
2644;SDS011;15377;48.540;9.268;2022-11-20T06:48:34;6.05;;;2.00;;
2644;SDS011;15377;48.540;9.268;2022-11-20T06:50:59;5.50;;;2.50;;
2644;SDS011;15377;48.540;9.268;2022-11-20T06:53:28;5.45;;;2.53;;
2644;SDS011;15377;48.540;9.268;2022-11-20T06:55:56;6.10;;;2.50;;
2644;SDS011;15377;48.540;9.268;2022-11-20T06:58:22;5.10;;;2.13;;
2644;SDS011;15377;48.540;9.268;2022-11-20T07:00:48;6.07;;;2.67;;
2644;SDS011;15377;48.540;9.268;2022-11-20T07:03:13;6.80;;;2.83;;
2644;SDS011;15377;48.540;9.268;2022-11-20T07:05:39;7.47;;;2.70;;
2644;SDS011;15377;48.540;9.268;2022-11-20T07:08:05;5.87;;;2.30;;
2644;SDS011;15377;48.540;9.268;2022-11-20T07:10:30;7.13;;;2.50;;
2644;SDS011;15377;48.540;9.268;2022-11-20T07:12:56;5.73;;;2.37;;
2644;SDS011;15377;48.540;9.268;2022-11-20T07:15:22;5.93;;;3.33;;
2644;SDS011;15377;48.540;9.268;2022-11-20T07:17:48;6.38;;;2.55;;
2644;SDS011;15377;48.540;9.268;2022-11-20T07:20:14;5.47;;;2.23;;
2644;SDS011;15377;48.540;9.268;2022-11-20T07:22:40;6.33;;;2.67;;
2644;SDS011;15377;48.540;9.268;2022-11-20T07:25:06;6.03;;;2.57;;
2644;SDS011;15377;48.540;9.268;2022-11-20T07:27:32;5.63;;;2.30;;
2644;SDS011;15377;48.540;9.268;2022-11-20T07:29:57;5.63;;;2.17;;
2644;SDS011;15377;48.540;9.268;2022-11-20T07:32:23;7.10;;;2.57;;
2644;SDS011;15377;48.540;9.268;2022-11-20T07:34:48;5.93;;;2.60;;
2644;SDS011;15377;48.540;9.268;2022-11-20T07:37:14;5.50;;;2.40;;
2644;SDS011;15377;48.540;9.268;2022-11-20T07:39:40;6.97;;;2.43;;
2644;SDS011;15377;48.540;9.268;2022-11-20T07:42:05;5.60;;;2.33;;
2644;SDS011;15377;48.540;9.268;2022-11-20T07:44:31;8.60;;;5.00;;
2644;SDS011;15377;48.540;9.268;2022-11-20T07:46:57;14.20;;;6.80;;
2644;SDS011;15377;48.540;9.268;2022-11-20T07:49:22;7.33;;;2.20;;
2644;SDS011;15377;48.540;9.268;2022-11-20T07:51:49;5.37;;;2.00;;
2644;SDS011;15377;48.540;9.268;2022-11-20T07:54:15;7.77;;;4.20;;
2644;SDS011;15377;48.540;9.268;2022-11-20T07:56:41;5.47;;;2.30;;
2644;SDS011;15377;48.540;9.268;2022-11-20T07:59:06;5.07;;;2.10;;
2644;SDS011;15377;48.540;9.268;2022-11-20T08:01:32;5.90;;;2.17;;
2644;SDS011;15377;48.540;9.268;2022-11-20T08:03:57;5.23;;;1.93;;
2644;SDS011;15377;48.540;9.268;2022-11-20T08:06:22;4.90;;;1.87;;
2644;SDS011;15377;48.540;9.268;2022-11-20T08:08:50;6.00;;;2.60;;
2644;SDS011;15377;48.540;9.268;2022-11-20T08:11:16;5.03;;;2.03;;
2644;SDS011;15377;48.540;9.268;2022-11-20T08:13:59;5.53;;;2.10;;
2644;SDS011;15377;48.540;9.268;2022-11-20T08:16:37;5.07;;;1.90;;
2644;SDS011;15377;48.540;9.268;2022-11-20T08:19:03;5.53;;;1.95;;
2644;SDS011;15377;48.540;9.268;2022-11-20T08:21:29;4.90;;;2.10;;
2644;SDS011;15377;48.540;9.268;2022-11-20T08:23:55;5.37;;;1.93;;
2644;SDS011;15377;48.540;9.268;2022-11-20T08:26:20;7.10;;;2.30;;
2644;SDS011;15377;48.540;9.268;2022-11-20T08:28:46;5.60;;;2.23;;
2644;SDS011;15377;48.540;9.268;2022-11-20T08:31:12;5.67;;;1.80;;
2644;SDS011;15377;48.540;9.268;2022-11-20T08:33:37;5.87;;;2.63;;
2644;SDS011;15377;48.540;9.268;2022-11-20T08:36:03;4.80;;;2.00;;
2644;SDS011;15377;48.540;9.268;2022-11-20T08:38:29;5.07;;;1.90;;
2644;SDS011;15377;48.540;9.268;2022-11-20T08:40:58;5.60;;;1.93;;
2644;SDS011;15377;48.540;9.268;2022-11-20T08:43:43;7.23;;;2.27;;
2644;SDS011;15377;48.540;9.268;2022-11-20T08:46:09;5.63;;;2.10;;
2644;SDS011;15377;48.540;9.268;2022-11-20T08:48:34;5.23;;;2.10;;
2644;SDS011;15377;48.540;9.268;2022-11-20T08:50:59;5.77;;;2.37;;
2644;SDS011;15377;48.540;9.268;2022-11-20T08:53:25;5.40;;;2.40;;
2644;SDS011;15377;48.540;9.268;2022-11-20T08:55:51;5.83;;;2.50;;
2644;SDS011;15377;48.540;9.268;2022-11-20T08:58:16;5.53;;;2.40;;
2644;SDS011;15377;48.540;9.268;2022-11-20T09:00:42;8.13;;;2.30;;
2644;SDS011;15377;48.540;9.268;2022-11-20T09:03:07;5.30;;;2.20;;
2644;SDS011;15377;48.540;9.268;2022-11-20T09:05:32;5.60;;;2.13;;
2644;SDS011;15377;48.540;9.268;2022-11-20T09:07:58;5.50;;;2.30;;
2644;SDS011;15377;48.540;9.268;2022-11-20T09:10:24;6.63;;;3.00;;
2644;SDS011;15377;48.540;9.268;2022-11-20T09:12:49;5.80;;;2.20;;
2644;SDS011;15377;48.540;9.268;2022-11-20T09:15:16;5.20;;;2.00;;
2644;SDS011;15377;48.540;9.268;2022-11-20T09:17:42;5.80;;;1.90;;
2644;SDS011;15377;48.540;9.268;2022-11-20T09:20:07;4.57;;;1.67;;
2644;SDS011;15377;48.540;9.268;2022-11-20T09:22:33;5.10;;;2.30;;
2644;SDS011;15377;48.540;9.268;2022-11-20T09:24:59;5.37;;;2.47;;
2644;SDS011;15377;48.540;9.268;2022-11-20T09:27:24;5.30;;;2.20;;
2644;SDS011;15377;48.540;9.268;2022-11-20T09:29:49;5.90;;;2.20;;
2644;SDS011;15377;48.540;9.268;2022-11-20T09:32:15;5.20;;;1.90;;
2644;SDS011;15377;48.540;9.268;2022-11-20T09:34:40;6.60;;;2.20;;
2644;SDS011;15377;48.540;9.268;2022-11-20T09:37:05;5.27;;;2.20;;
2644;SDS011;15377;48.540;9.268;2022-11-20T09:39:31;8.67;;;3.37;;
2644;SDS011;15377;48.540;9.268;2022-11-20T09:42:09;6.60;;;2.73;;
2644;SDS011;15377;48.540;9.268;2022-11-20T09:47:42;7.17;;;2.27;;
2644;SDS011;15377;48.540;9.268;2022-11-20T09:50:25;7.60;;;2.57;;
2644;SDS011;15377;48.540;9.268;2022-11-20T09:56:08;5.10;;;2.00;;
2644;SDS011;15377;48.540;9.268;2022-11-20T09:58:40;7.37;;;3.10;;
2644;SDS011;15377;48.540;9.268;2022-11-20T10:01:29;5.50;;;2.30;;
2644;SDS011;15377;48.540;9.268;2022-11-20T10:14:34;5.90;;;2.67;;
2644;SDS011;15377;48.540;9.268;2022-11-20T10:19:53;5.93;;;2.20;;
2644;SDS011;15377;48.540;9.268;2022-11-20T10:25:18;5.53;;;2.17;;
2644;SDS011;15377;48.540;9.268;2022-11-20T10:30:42;8.33;;;3.60;;
2644;SDS011;15377;48.540;9.268;2022-11-20T10:35:52;5.80;;;2.50;;
2644;SDS011;15377;48.540;9.268;2022-11-20T10:38:25;5.13;;;2.30;;
2644;SDS011;15377;48.540;9.268;2022-11-20T10:41:01;5.20;;;2.17;;
2644;SDS011;15377;48.540;9.268;2022-11-20T10:43:47;5.13;;;2.20;;
2644;SDS011;15377;48.540;9.268;2022-11-20T10:46:17;5.03;;;1.97;;
2644;SDS011;15377;48.540;9.268;2022-11-20T10:48:45;8.70;;;2.90;;
2644;SDS011;15377;48.540;9.268;2022-11-20T10:56:51;6.07;;;2.30;;
2644;SDS011;15377;48.540;9.268;2022-11-20T11:01:45;8.40;;;2.63;;
2644;SDS011;15377;48.540;9.268;2022-11-20T11:07:06;6.57;;;2.70;;
2644;SDS011;15377;48.540;9.268;2022-11-20T11:09:39;7.00;;;2.40;;
2644;SDS011;15377;48.540;9.268;2022-11-20T11:12:09;6.77;;;2.53;;
2644;SDS011;15377;48.540;9.268;2022-11-20T11:14:42;6.27;;;2.70;;
2644;SDS011;15377;48.540;9.268;2022-11-20T11:17:18;7.00;;;2.53;;
2644;SDS011;15377;48.540;9.268;2022-11-20T11:20:00;5.90;;;2.30;;
2644;SDS011;15377;48.540;9.268;2022-11-20T11:22:48;6.50;;;2.50;;
2644;SDS011;15377;48.540;9.268;2022-11-20T11:25:19;5.50;;;2.40;;
2644;SDS011;15377;48.540;9.268;2022-11-20T11:27:48;5.10;;;2.37;;
2644;SDS011;15377;48.540;9.268;2022-11-20T11:30:15;6.47;;;2.10;;
2644;SDS011;15377;48.540;9.268;2022-11-20T11:32:42;5.17;;;2.10;;
2644;SDS011;15377;48.540;9.268;2022-11-20T11:35:27;5.20;;;2.20;;
2644;SDS011;15377;48.540;9.268;2022-11-20T11:38:03;6.43;;;2.37;;
2644;SDS011;15377;48.540;9.268;2022-11-20T11:40:32;6.27;;;2.23;;
2644;SDS011;15377;48.540;9.268;2022-11-20T11:43:01;5.80;;;2.03;;
2644;SDS011;15377;48.540;9.268;2022-11-20T11:45:30;6.17;;;2.40;;
2644;SDS011;15377;48.540;9.268;2022-11-20T11:47:57;4.97;;;1.77;;
2644;SDS011;15377;48.540;9.268;2022-11-20T11:50:26;5.27;;;2.20;;
2644;SDS011;15377;48.540;9.268;2022-11-20T12:01:03;5.20;;;2.00;;
2644;SDS011;15377;48.540;9.268;2022-11-20T12:03:36;6.33;;;1.87;;
2644;SDS011;15377;48.540;9.268;2022-11-20T12:06:05;5.23;;;1.97;;
2644;SDS011;15377;48.540;9.268;2022-11-20T12:08:52;5.37;;;1.73;;
2644;SDS011;15377;48.540;9.268;2022-11-20T12:11:24;6.20;;;1.70;;
2644;SDS011;15377;48.540;9.268;2022-11-20T12:16:44;7.73;;;2.07;;
2644;SDS011;15377;48.540;9.268;2022-11-20T12:19:11;5.37;;;2.17;;
2644;SDS011;15377;48.540;9.268;2022-11-20T12:38:32;5.17;;;1.90;;
2644;SDS011;15377;48.540;9.268;2022-11-20T12:50:38;5.67;;;2.47;;
2644;SDS011;15377;48.540;9.268;2022-11-20T12:53:43;5.40;;;2.37;;
2644;SDS011;15377;48.540;9.268;2022-11-20T12:56:41;6.37;;;2.73;;
2644;SDS011;15377;48.540;9.268;2022-11-20T13:07:40;9.17;;;4.33;;
2644;SDS011;15377;48.540;9.268;2022-11-20T13:10:13;7.30;;;3.50;;
2644;SDS011;15377;48.540;9.268;2022-11-20T13:12:44;4.50;;;1.40;;
2644;SDS011;15377;48.540;9.268;2022-11-20T13:15:38;13.57;;;6.50;;
2644;SDS011;15377;48.540;9.268;2022-11-20T13:18:00;7.03;;;3.30;;
2644;SDS011;15377;48.540;9.268;2022-11-20T13:20:27;8.30;;;2.93;;
2644;SDS011;15377;48.540;9.268;2022-11-20T13:22:55;4.97;;;1.70;;
2644;SDS011;15377;48.540;9.268;2022-11-20T13:27:50;5.60;;;2.07;;
2644;SDS011;15377;48.540;9.268;2022-11-20T13:30:18;9.60;;;4.40;;
2644;SDS011;15377;48.540;9.268;2022-11-20T13:33:03;6.13;;;1.90;;
2644;SDS011;15377;48.540;9.268;2022-11-20T13:35:37;8.00;;;3.40;;
2644;SDS011;15377;48.540;9.268;2022-11-20T13:40:33;6.20;;;2.10;;
2644;SDS011;15377;48.540;9.268;2022-11-20T13:43:02;5.40;;;2.07;;
2644;SDS011;15377;48.540;9.268;2022-11-20T13:45:33;4.90;;;1.77;;
2644;SDS011;15377;48.540;9.268;2022-11-20T13:48:02;4.73;;;1.80;;
2644;SDS011;15377;48.540;9.268;2022-11-20T13:50:55;5.10;;;2.10;;
2644;SDS011;15377;48.540;9.268;2022-11-20T13:53:56;6.77;;;2.00;;
2644;SDS011;15377;48.540;9.268;2022-11-20T13:57:11;5.53;;;2.20;;
2644;SDS011;15377;48.540;9.268;2022-11-20T14:02:32;6.40;;;2.13;;
2644;SDS011;15377;48.540;9.268;2022-11-20T14:04:58;5.37;;;1.87;;
2644;SDS011;15377;48.540;9.268;2022-11-20T14:07:31;6.90;;;2.53;;
2644;SDS011;15377;48.540;9.268;2022-11-20T14:10:01;6.20;;;2.40;;
2644;SDS011;15377;48.540;9.268;2022-11-20T14:12:28;6.73;;;1.83;;
2644;SDS011;15377;48.540;9.268;2022-11-20T14:14:55;5.10;;;1.90;;
2644;SDS011;15377;48.540;9.268;2022-11-20T14:17:22;7.33;;;3.07;;
2644;SDS011;15377;48.540;9.268;2022-11-20T14:19:50;8.83;;;3.40;;
2644;SDS011;15377;48.540;9.268;2022-11-20T14:22:27;6.43;;;2.30;;
2644;SDS011;15377;48.540;9.268;2022-11-20T14:27:41;5.23;;;2.10;;
2644;SDS011;15377;48.540;9.268;2022-11-20T14:30:14;5.50;;;1.83;;
2644;SDS011;15377;48.540;9.268;2022-11-20T14:32:42;5.30;;;1.73;;
2644;SDS011;15377;48.540;9.268;2022-11-20T14:35:10;5.07;;;1.77;;
2644;SDS011;15377;48.540;9.268;2022-11-20T14:37:44;5.93;;;1.90;;
2644;SDS011;15377;48.540;9.268;2022-11-20T14:40:23;4.47;;;1.50;;
2644;SDS011;15377;48.540;9.268;2022-11-20T14:42:53;4.50;;;1.60;;
2644;SDS011;15377;48.540;9.268;2022-11-20T14:45:19;4.50;;;1.63;;
2644;SDS011;15377;48.540;9.268;2022-11-20T14:47:46;4.87;;;1.60;;
2644;SDS011;15377;48.540;9.268;2022-11-20T14:50:21;5.43;;;1.70;;
2644;SDS011;15377;48.540;9.268;2022-11-20T14:52:58;5.27;;;2.00;;
2644;SDS011;15377;48.540;9.268;2022-11-20T14:55:29;5.00;;;1.90;;
2644;SDS011;15377;48.540;9.268;2022-11-20T14:57:58;6.35;;;2.10;;
2644;SDS011;15377;48.540;9.268;2022-11-20T15:00:28;5.97;;;1.80;;
2644;SDS011;15377;48.540;9.268;2022-11-20T15:02:54;8.60;;;4.10;;
2644;SDS011;15377;48.540;9.268;2022-11-20T15:05:43;7.00;;;3.33;;
2644;SDS011;15377;48.540;9.268;2022-11-20T15:08:11;8.57;;;4.00;;
2644;SDS011;15377;48.540;9.268;2022-11-20T15:10:49;5.77;;;2.83;;
2644;SDS011;15377;48.540;9.268;2022-11-20T15:13:17;6.33;;;3.03;;
2644;SDS011;15377;48.540;9.268;2022-11-20T15:15:50;6.43;;;2.67;;
2644;SDS011;15377;48.540;9.268;2022-11-20T15:18:24;5.53;;;2.00;;
2644;SDS011;15377;48.540;9.268;2022-11-20T15:20:51;5.87;;;2.30;;
2644;SDS011;15377;48.540;9.268;2022-11-20T15:23:19;5.33;;;1.90;;
2644;SDS011;15377;48.540;9.268;2022-11-20T15:25:45;10.27;;;2.50;;
2644;SDS011;15377;48.540;9.268;2022-11-20T15:28:13;20.53;;;11.53;;
2644;SDS011;15377;48.540;9.268;2022-11-20T15:30:40;6.10;;;3.13;;
2644;SDS011;15377;48.540;9.268;2022-11-20T15:33:07;9.90;;;5.23;;
2644;SDS011;15377;48.540;9.268;2022-11-20T15:35:33;7.00;;;2.70;;
2644;SDS011;15377;48.540;9.268;2022-11-20T15:37:59;16.23;;;8.23;;
2644;SDS011;15377;48.540;9.268;2022-11-20T15:40:24;11.70;;;5.70;;
2644;SDS011;15377;48.540;9.268;2022-11-20T15:42:49;6.73;;;3.20;;
2644;SDS011;15377;48.540;9.268;2022-11-20T15:45:42;5.97;;;2.80;;
2644;SDS011;15377;48.540;9.268;2022-11-20T15:48:11;8.13;;;4.00;;
2644;SDS011;15377;48.540;9.268;2022-11-20T15:53:36;6.78;;;3.63;;
2644;SDS011;15377;48.540;9.268;2022-11-20T15:56:02;7.50;;;3.88;;
2644;SDS011;15377;48.540;9.268;2022-11-20T15:58:28;12.60;;;7.53;;
2644;SDS011;15377;48.540;9.268;2022-11-20T16:00:54;9.57;;;3.80;;
2644;SDS011;15377;48.540;9.268;2022-11-20T16:03:19;8.43;;;4.60;;
2644;SDS011;15377;48.540;9.268;2022-11-20T16:05:45;7.60;;;3.93;;
2644;SDS011;15377;48.540;9.268;2022-11-20T16:08:10;6.87;;;3.03;;
2644;SDS011;15377;48.540;9.268;2022-11-20T16:10:36;7.40;;;3.70;;
2644;SDS011;15377;48.540;9.268;2022-11-20T16:13:02;7.50;;;3.47;;
2644;SDS011;15377;48.540;9.268;2022-11-20T16:15:56;8.13;;;4.20;;
2644;SDS011;15377;48.540;9.268;2022-11-20T16:18:23;8.57;;;4.20;;
2644;SDS011;15377;48.540;9.268;2022-11-20T16:20:51;6.70;;;3.53;;
2644;SDS011;15377;48.540;9.268;2022-11-20T16:23:17;11.27;;;5.85;;
2644;SDS011;15377;48.540;9.268;2022-11-20T16:25:44;10.53;;;5.93;;
2644;SDS011;15377;48.540;9.268;2022-11-20T16:28:09;9.30;;;4.83;;
2644;SDS011;15377;48.540;9.268;2022-11-20T16:30:35;19.27;;;8.60;;
2644;SDS011;15377;48.540;9.268;2022-11-20T16:33:02;8.67;;;4.67;;
2644;SDS011;15377;48.540;9.268;2022-11-20T16:35:29;7.80;;;3.40;;
2644;SDS011;15377;48.540;9.268;2022-11-20T16:37:55;6.97;;;3.38;;
2644;SDS011;15377;48.540;9.268;2022-11-20T16:40:22;9.68;;;4.25;;
2644;SDS011;15377;48.540;9.268;2022-11-20T16:42:47;6.40;;;2.80;;
2644;SDS011;15377;48.540;9.268;2022-11-20T16:45:12;9.33;;;4.93;;
2644;SDS011;15377;48.540;9.268;2022-11-20T16:47:39;19.53;;;11.40;;
2644;SDS011;15377;48.540;9.268;2022-11-20T16:50:04;8.57;;;4.13;;
2644;SDS011;15377;48.540;9.268;2022-11-20T16:52:30;7.05;;;3.15;;
2644;SDS011;15377;48.540;9.268;2022-11-20T16:54:56;6.53;;;2.83;;